sensor_id;sensor_type;location;lat;lon;timestamp;pressure;altitude;pressure_sealevel;temperature;humidity
6413;BME280;3239;48.714;9.472;2023-03-22T00:01:55;98124.91;;;9.74;100.00
6413;BME280;3239;48.714;9.472;2023-03-22T00:04:21;98125.94;;;9.71;100.00
6413;BME280;3239;48.714;9.472;2023-03-22T00:06:47;98128.69;;;9.71;100.00
6413;BME280;3239;48.714;9.472;2023-03-22T00:09:13;98128.09;;;9.60;100.00
6413;BME280;3239;48.714;9.472;2023-03-22T00:11:39;98128.88;;;9.55;100.00
6413;BME280;3239;48.714;9.472;2023-03-22T00:14:04;98128.53;;;9.45;100.00
6413;BME280;3239;48.714;9.472;2023-03-22T00:16:31;98128.84;;;9.42;100.00
6413;BME280;3239;48.714;9.472;2023-03-22T00:18:57;98126.31;;;9.44;100.00
6413;BME280;3239;48.714;9.472;2023-03-22T00:21:23;98134.81;;;9.40;100.00
6413;BME280;3239;48.714;9.472;2023-03-22T00:23:48;98138.88;;;9.34;100.00
6413;BME280;3239;48.714;9.472;2023-03-22T00:26:14;98133.97;;;9.27;100.00
6413;BME280;3239;48.714;9.472;2023-03-22T00:28:41;98130.06;;;9.22;100.00
6413;BME280;3239;48.714;9.472;2023-03-22T00:31:08;98136.09;;;9.15;100.00
6413;BME280;3239;48.714;9.472;2023-03-22T00:33:34;98139.63;;;9.10;100.00
6413;BME280;3239;48.714;9.472;2023-03-22T00:36:03;98142.97;;;9.03;100.00
6413;BME280;3239;48.714;9.472;2023-03-22T00:38:29;98145.41;;;9.07;100.00
6413;BME280;3239;48.714;9.472;2023-03-22T00:43:36;98144.81;;;8.95;100.00
6413;BME280;3239;48.714;9.472;2023-03-22T00:46:03;98137.09;;;8.94;100.00
6413;BME280;3239;48.714;9.472;2023-03-22T00:48:29;98136.44;;;8.88;100.00
6413;BME280;3239;48.714;9.472;2023-03-22T00:50:54;98139.72;;;8.81;100.00
6413;BME280;3239;48.714;9.472;2023-03-22T00:53:20;98145.47;;;8.77;100.00
6413;BME280;3239;48.714;9.472;2023-03-22T00:55:46;98144.22;;;8.78;100.00
6413;BME280;3239;48.714;9.472;2023-03-22T00:58:12;98144.78;;;8.71;100.00
6413;BME280;3239;48.714;9.472;2023-03-22T01:00:38;98146.78;;;8.71;100.00
6413;BME280;3239;48.714;9.472;2023-03-22T01:03:03;98141.19;;;8.58;100.00
6413;BME280;3239;48.714;9.472;2023-03-22T01:05:33;98135.28;;;8.54;100.00
6413;BME280;3239;48.714;9.472;2023-03-22T01:08:03;98147.22;;;8.51;100.00
6413;BME280;3239;48.714;9.472;2023-03-22T01:10:35;98150.47;;;8.49;100.00
6413;BME280;3239;48.714;9.472;2023-03-22T01:13:01;98143.56;;;8.43;100.00
6413;BME280;3239;48.714;9.472;2023-03-22T01:15:27;98157.00;;;8.41;100.00
6413;BME280;3239;48.714;9.472;2023-03-22T01:17:52;98150.47;;;8.20;100.00
6413;BME280;3239;48.714;9.472;2023-03-22T01:20:18;98150.41;;;8.25;100.00
6413;BME280;3239;48.714;9.472;2023-03-22T01:22:44;98156.34;;;8.29;100.00
6413;BME280;3239;48.714;9.472;2023-03-22T01:25:10;98151.22;;;8.15;100.00
6413;BME280;3239;48.714;9.472;2023-03-22T01:27:35;98162.09;;;8.20;100.00
6413;BME280;3239;48.714;9.472;2023-03-22T01:30:02;98166.56;;;8.18;100.00
6413;BME280;3239;48.714;9.472;2023-03-22T01:32:28;98161.09;;;8.23;100.00
6413;BME280;3239;48.714;9.472;2023-03-22T01:34:54;98155.91;;;8.14;100.00
6413;BME280;3239;48.714;9.472;2023-03-22T01:37:20;98160.19;;;8.10;100.00
6413;BME280;3239;48.714;9.472;2023-03-22T01:39:55;98158.22;;;8.05;100.00
6413;BME280;3239;48.714;9.472;2023-03-22T01:42:22;98152.06;;;7.99;100.00
6413;BME280;3239;48.714;9.472;2023-03-22T01:48:04;98142.75;;;7.83;100.00
6413;BME280;3239;48.714;9.472;2023-03-22T01:50:31;98148.25;;;7.78;100.00
6413;BME280;3239;48.714;9.472;2023-03-22T01:52:58;98151.19;;;7.80;100.00
6413;BME280;3239;48.714;9.472;2023-03-22T01:55:25;98157.97;;;7.68;100.00
6413;BME280;3239;48.714;9.472;2023-03-22T01:57:53;98151.75;;;7.67;100.00
6413;BME280;3239;48.714;9.472;2023-03-22T02:00:20;98157.75;;;7.60;100.00
6413;BME280;3239;48.714;9.472;2023-03-22T02:02:50;98157.53;;;7.58;100.00
6413;BME280;3239;48.714;9.472;2023-03-22T02:05:16;98160.03;;;7.51;100.00
6413;BME280;3239;48.714;9.472;2023-03-22T02:07:42;98160.53;;;7.49;100.00
6413;BME280;3239;48.714;9.472;2023-03-22T02:10:15;98154.59;;;7.45;100.00
6413;BME280;3239;48.714;9.472;2023-03-22T02:15:30;98148.97;;;7.32;100.00
6413;BME280;3239;48.714;9.472;2023-03-22T02:27:05;98157.47;;;7.18;100.00
6413;BME280;3239;48.714;9.472;2023-03-22T02:29:45;98156.72;;;7.12;100.00
6413;BME280;3239;48.714;9.472;2023-03-22T02:35:15;98154.50;;;7.16;100.00
6413;BME280;3239;48.714;9.472;2023-03-22T02:43:35;98144.63;;;7.07;100.00
6413;BME280;3239;48.714;9.472;2023-03-22T02:46:17;98146.38;;;6.99;100.00
6413;BME280;3239;48.714;9.472;2023-03-22T02:49:03;98149.38;;;6.90;100.00
6413;BME280;3239;48.714;9.472;2023-03-22T02:51:41;98154.09;;;6.84;100.00
6413;BME280;3239;48.714;9.472;2023-03-22T02:54:16;98152.59;;;6.83;100.00
6413;BME280;3239;48.714;9.472;2023-03-22T02:57:19;98163.03;;;6.79;100.00
6413;BME280;3239;48.714;9.472;2023-03-22T02:59:49;98164.47;;;6.86;100.00
6413;BME280;3239;48.714;9.472;2023-03-22T03:02:16;98154.09;;;6.84;100.00
6413;BME280;3239;48.714;9.472;2023-03-22T03:04:47;98157.81;;;6.81;100.00
6413;BME280;3239;48.714;9.472;2023-03-22T03:07:19;98166.97;;;6.73;100.00
6413;BME280;3239;48.714;9.472;2023-03-22T03:09:47;98161.03;;;6.69;100.00
6413;BME280;3239;48.714;9.472;2023-03-22T03:12:20;98172.69;;;6.64;100.00
6413;BME280;3239;48.714;9.472;2023-03-22T03:14:47;98170.47;;;6.62;100.00
6413;BME280;3239;48.714;9.472;2023-03-22T03:17:34;98170.72;;;6.59;100.00
6413;BME280;3239;48.714;9.472;2023-03-22T03:20:17;98163.56;;;6.56;100.00
6413;BME280;3239;48.714;9.472;2023-03-22T03:28:55;98173.94;;;6.52;100.00
6413;BME280;3239;48.714;9.472;2023-03-22T03:31:45;98185.56;;;6.47;100.00
6413;BME280;3239;48.714;9.472;2023-03-22T03:37:17;98190.75;;;6.39;100.00
6413;BME280;3239;48.714;9.472;2023-03-22T03:39:57;98193.50;;;6.39;100.00
6413;BME280;3239;48.714;9.472;2023-03-22T03:42:27;98194.22;;;6.34;100.00
6413;BME280;3239;48.714;9.472;2023-03-22T03:44:54;98193.50;;;6.28;100.00
6413;BME280;3239;48.714;9.472;2023-03-22T03:47:20;98204.38;;;6.28;100.00
6413;BME280;3239;48.714;9.472;2023-03-22T03:49:47;98203.13;;;6.29;100.00
6413;BME280;3239;48.714;9.472;2023-03-22T03:52:13;98200.16;;;6.27;100.00
6413;BME280;3239;48.714;9.472;2023-03-22T03:54:39;98206.84;;;6.21;100.00
6413;BME280;3239;48.714;9.472;2023-03-22T03:57:05;98207.31;;;6.08;100.00
6413;BME280;3239;48.714;9.472;2023-03-22T03:59:31;98207.81;;;6.12;100.00
6413;BME280;3239;48.714;9.472;2023-03-22T04:01:57;98209.78;;;6.01;100.00
6413;BME280;3239;48.714;9.472;2023-03-22T04:04:26;98215.72;;;5.99;100.00
6413;BME280;3239;48.714;9.472;2023-03-22T04:06:54;98218.91;;;5.98;100.00
6413;BME280;3239;48.714;9.472;2023-03-22T04:09:23;98210.75;;;5.92;100.00
6413;BME280;3239;48.714;9.472;2023-03-22T04:11:49;98216.44;;;5.89;100.00
6413;BME280;3239;48.714;9.472;2023-03-22T04:14:15;98214.19;;;5.87;100.00
6413;BME280;3239;48.714;9.472;2023-03-22T04:16:41;98221.09;;;5.88;100.00
6413;BME280;3239;48.714;9.472;2023-03-22T04:19:07;98203.56;;;5.84;100.00
6413;BME280;3239;48.714;9.472;2023-03-22T04:21:33;98210.00;;;5.81;100.00
6413;BME280;3239;48.714;9.472;2023-03-22T04:23:58;98215.19;;;5.84;100.00
6413;BME280;3239;48.714;9.472;2023-03-22T04:26:24;98215.13;;;5.79;100.00
6413;BME280;3239;48.714;9.472;2023-03-22T04:28:50;98212.72;;;5.81;100.00
6413;BME280;3239;48.714;9.472;2023-03-22T04:31:15;98213.66;;;5.78;100.00
6413;BME280;3239;48.714;9.472;2023-03-22T04:33:43;98218.09;;;5.75;100.00
6413;BME280;3239;48.714;9.472;2023-03-22T04:36:13;98216.84;;;5.76;100.00
6413;BME280;3239;48.714;9.472;2023-03-22T04:38:42;98215.84;;;5.68;100.00
6413;BME280;3239;48.714;9.472;2023-03-22T04:41:09;98216.59;;;5.69;100.00
6413;BME280;3239;48.714;9.472;2023-03-22T04:43:35;98215.34;;;5.64;100.00
6413;BME280;3239;48.714;9.472;2023-03-22T04:46:07;98209.66;;;5.68;100.00
6413;BME280;3239;48.714;9.472;2023-03-22T04:48:40;98215.06;;;5.57;100.00
6413;BME280;3239;48.714;9.472;2023-03-22T04:51:09;98216.06;;;5.59;100.00
6413;BME280;3239;48.714;9.472;2023-03-22T04:53:36;98215.03;;;5.51;100.00
6413;BME280;3239;48.714;9.472;2023-03-22T04:56:06;98208.34;;;5.47;100.00
6413;BME280;3239;48.714;9.472;2023-03-22T04:58:35;98213.50;;;5.34;100.00
6413;BME280;3239;48.714;9.472;2023-03-22T05:01:02;98219.19;;;5.36;100.00
6413;BME280;3239;48.714;9.472;2023-03-22T05:03:28;98217.72;;;5.40;100.00
6413;BME280;3239;48.714;9.472;2023-03-22T05:05:56;98216.47;;;5.36;100.00
6413;BME280;3239;48.714;9.472;2023-03-22T05:08:24;98215.69;;;5.30;100.00
6413;BME280;3239;48.714;9.472;2023-03-22T05:10:52;98211.22;;;5.27;100.00
6413;BME280;3239;48.714;9.472;2023-03-22T05:13:19;98214.69;;;5.27;100.00
6413;BME280;3239;48.714;9.472;2023-03-22T05:15:46;98216.44;;;5.30;100.00
6413;BME280;3239;48.714;9.472;2023-03-22T05:18:15;98211.97;;;5.27;100.00
6413;BME280;3239;48.714;9.472;2023-03-22T05:20:44;98214.44;;;5.25;100.00
6413;BME280;3239;48.714;9.472;2023-03-22T05:23:10;98202.06;;;5.24;100.00
6413;BME280;3239;48.714;9.472;2023-03-22T05:25:36;98194.63;;;5.14;100.00
6413;BME280;3239;48.714;9.472;2023-03-22T05:28:03;98201.78;;;5.11;100.00
6413;BME280;3239;48.714;9.472;2023-03-22T05:30:30;98199.59;;;5.21;100.00
6413;BME280;3239;48.714;9.472;2023-03-22T05:33:03;98206.16;;;5.03;100.00
6413;BME280;3239;48.714;9.472;2023-03-22T05:35:30;98206.22;;;5.09;100.00
6413;BME280;3239;48.714;9.472;2023-03-22T05:37:56;98203.19;;;5.01;100.00
6413;BME280;3239;48.714;9.472;2023-03-22T05:40:23;98197.31;;;5.08;100.00
6413;BME280;3239;48.714;9.472;2023-03-22T05:42:49;98206.22;;;5.09;100.00
6413;BME280;3239;48.714;9.472;2023-03-22T05:45:16;98193.38;;;5.09;100.00
6413;BME280;3239;48.714;9.472;2023-03-22T05:47:42;98189.69;;;5.12;100.00
6413;BME280;3239;48.714;9.472;2023-03-22T05:50:11;98192.41;;;5.12;100.00
6413;BME280;3239;48.714;9.472;2023-03-22T05:52:38;98192.16;;;5.10;100.00
6413;BME280;3239;48.714;9.472;2023-03-22T05:55:04;98195.88;;;5.18;100.00
6413;BME280;3239;48.714;9.472;2023-03-22T05:57:32;98192.69;;;5.20;100.00
6413;BME280;3239;48.714;9.472;2023-03-22T05:59:58;98190.72;;;5.26;100.00
6413;BME280;3239;48.714;9.472;2023-03-22T06:02:24;98190.53;;;5.35;100.00
6413;BME280;3239;48.714;9.472;2023-03-22T06:04:50;98183.09;;;5.30;100.00
6413;BME280;3239;48.714;9.472;2023-03-22T06:07:19;98185.06;;;5.29;100.00
6413;BME280;3239;48.714;9.472;2023-03-22T06:09:45;98190.06;;;5.36;100.00
6413;BME280;3239;48.714;9.472;2023-03-22T06:12:13;98180.69;;;5.48;100.00
6413;BME280;3239;48.714;9.472;2023-03-22T06:14:39;98185.94;;;5.57;100.00
6413;BME280;3239;48.714;9.472;2023-03-22T06:17:04;98187.13;;;5.56;100.00
6413;BME280;3239;48.714;9.472;2023-03-22T06:19:30;98192.19;;;5.91;100.00
6413;BME280;3239;48.714;9.472;2023-03-22T06:21:56;98197.69;;;6.13;100.00
6413;BME280;3239;48.714;9.472;2023-03-22T06:24:22;98195.97;;;6.26;100.00
6413;BME280;3239;48.714;9.472;2023-03-22T06:26:48;98181.09;;;5.94;100.00
6413;BME280;3239;48.714;9.472;2023-03-22T06:29:14;98181.09;;;6.00;100.00
6413;BME280;3239;48.714;9.472;2023-03-22T06:31:39;98169.25;;;6.47;100.00
6413;BME280;3239;48.714;9.472;2023-03-22T06:34:05;98178.09;;;6.86;100.00
6413;BME280;3239;48.714;9.472;2023-03-22T06:36:31;98166.31;;;7.29;100.00
6413;BME280;3239;48.714;9.472;2023-03-22T06:38:57;98154.25;;;7.14;100.00
6413;BME280;3239;48.714;9.472;2023-03-22T06:41:25;98146.91;;;7.49;100.00
6413;BME280;3239;48.714;9.472;2023-03-22T06:43:51;98126.84;;;7.47;100.00
6413;BME280;3239;48.714;9.472;2023-03-22T06:46:17;98132.13;;;8.09;100.00
6413;BME280;3239;48.714;9.472;2023-03-22T06:48:43;98108.13;;;7.67;100.00
6413;BME280;3239;48.714;9.472;2023-03-22T06:51:09;98097.91;;;7.79;100.00
6413;BME280;3239;48.714;9.472;2023-03-22T06:53:35;98103.75;;;8.29;100.00
6413;BME280;3239;48.714;9.472;2023-03-22T06:56:01;98089.34;;;8.28;100.00
6413;BME280;3239;48.714;9.472;2023-03-22T06:58:26;98090.06;;;7.99;100.00
6413;BME280;3239;48.714;9.472;2023-03-22T07:00:54;98084.84;;;8.01;100.00
6413;BME280;3239;48.714;9.472;2023-03-22T07:03:20;98079.31;;;8.07;100.00
6413;BME280;3239;48.714;9.472;2023-03-22T07:05:46;98073.72;;;8.77;100.00
6413;BME280;3239;48.714;9.472;2023-03-22T07:08:12;98070.75;;;9.36;100.00
6413;BME280;3239;48.714;9.472;2023-03-22T07:10:38;98058.50;;;9.74;100.00
6413;BME280;3239;48.714;9.472;2023-03-22T07:13:03;98040.66;;;9.86;100.00
6413;BME280;3239;48.714;9.472;2023-03-22T07:15:30;98038.88;;;9.57;100.00
6413;BME280;3239;48.714;9.472;2023-03-22T07:17:59;98022.59;;;9.64;100.00
6413;BME280;3239;48.714;9.472;2023-03-22T07:20:26;98033.09;;;9.60;100.00
6413;BME280;3239;48.714;9.472;2023-03-22T07:22:52;98030.41;;;9.42;100.00
6413;BME280;3239;48.714;9.472;2023-03-22T07:25:18;98035.63;;;9.90;100.00
6413;BME280;3239;48.714;9.472;2023-03-22T07:27:45;98029.59;;;10.10;100.00
6413;BME280;3239;48.714;9.472;2023-03-22T07:30:11;98016.78;;;10.44;100.00
6413;BME280;3239;48.714;9.472;2023-03-22T07:32:39;98016.66;;;10.36;100.00
6413;BME280;3239;48.714;9.472;2023-03-22T07:35:05;98016.63;;;10.88;100.00
6413;BME280;3239;48.714;9.472;2023-03-22T07:37:31;98002.91;;;11.68;100.00
6413;BME280;3239;48.714;9.472;2023-03-22T07:39:57;97993.09;;;11.73;100.00
6413;BME280;3239;48.714;9.472;2023-03-22T07:42:23;97977.25;;;12.07;100.00
6413;BME280;3239;48.714;9.472;2023-03-22T07:44:48;97969.31;;;12.52;100.00
6413;BME280;3239;48.714;9.472;2023-03-22T07:47:15;97969.00;;;12.63;100.00
6413;BME280;3239;48.714;9.472;2023-03-22T07:49:40;97954.16;;;12.30;100.00
6413;BME280;3239;48.714;9.472;2023-03-22T07:52:06;97954.25;;;12.88;100.00
6413;BME280;3239;48.714;9.472;2023-03-22T07:54:32;97952.19;;;12.74;100.00
6413;BME280;3239;48.714;9.472;2023-03-22T07:56:58;97943.69;;;14.65;100.00
6413;BME280;3239;48.714;9.472;2023-03-22T07:59:24;97947.88;;;13.81;100.00
6413;BME280;3239;48.714;9.472;2023-03-22T08:01:50;97944.91;;;14.17;100.00
6413;BME280;3239;48.714;9.472;2023-03-22T08:04:16;97941.25;;;13.92;100.00
6413;BME280;3239;48.714;9.472;2023-03-22T08:06:43;97933.69;;;14.30;100.00
6413;BME280;3239;48.714;9.472;2023-03-22T08:09:11;97925.78;;;14.88;100.00
6413;BME280;3239;48.714;9.472;2023-03-22T08:11:37;97931.34;;;15.13;100.00
6413;BME280;3239;48.714;9.472;2023-03-22T08:14:02;97933.72;;;16.39;100.00
6413;BME280;3239;48.714;9.472;2023-03-22T08:16:28;97935.06;;;15.40;100.00
6413;BME280;3239;48.714;9.472;2023-03-22T08:18:54;97929.63;;;14.85;100.00
6413;BME280;3239;48.714;9.472;2023-03-22T08:21:20;97933.72;;;14.77;100.00
6413;BME280;3239;48.714;9.472;2023-03-22T08:23:45;97931.69;;;14.85;100.00
6413;BME280;3239;48.714;9.472;2023-03-22T08:26:11;97932.25;;;14.76;100.00
6413;BME280;3239;48.714;9.472;2023-03-22T08:28:37;97934.63;;;15.51;100.00
6413;BME280;3239;48.714;9.472;2023-03-22T08:31:14;97934.00;;;17.47;100.00
6413;BME280;3239;48.714;9.472;2023-03-22T08:33:41;97920.78;;;17.02;100.00
6413;BME280;3239;48.714;9.472;2023-03-22T08:36:12;97915.47;;;16.70;100.00
6413;BME280;3239;48.714;9.472;2023-03-22T08:38:37;97924.97;;;16.25;100.00
6413;BME280;3239;48.714;9.472;2023-03-22T08:41:03;97927.09;;;15.51;100.00
6413;BME280;3239;48.714;9.472;2023-03-22T08:43:29;97923.84;;;15.87;100.00
6413;BME280;3239;48.714;9.472;2023-03-22T08:45:56;97926.00;;;15.96;100.00
6413;BME280;3239;48.714;9.472;2023-03-22T08:48:22;97933.63;;;16.46;100.00
6413;BME280;3239;48.714;9.472;2023-03-22T08:50:47;97921.81;;;16.46;100.00
6413;BME280;3239;48.714;9.472;2023-03-22T08:53:13;97918.75;;;16.42;100.00
6413;BME280;3239;48.714;9.472;2023-03-22T08:55:39;97914.03;;;16.95;100.00
6413;BME280;3239;48.714;9.472;2023-03-22T08:58:11;97913.56;;;17.69;94.61
6413;BME280;3239;48.714;9.472;2023-03-22T09:00:36;97916.69;;;18.01;81.86
6413;BME280;3239;48.714;9.472;2023-03-22T09:03:03;97903.34;;;17.09;92.13
6413;BME280;3239;48.714;9.472;2023-03-22T09:05:29;97914.78;;;17.94;88.92
6413;BME280;3239;48.714;9.472;2023-03-22T09:07:55;97912.91;;;17.97;74.58
6413;BME280;3239;48.714;9.472;2023-03-22T09:10:21;97899.28;;;18.46;80.56
6413;BME280;3239;48.714;9.472;2023-03-22T09:12:47;97901.75;;;17.78;73.79
6413;BME280;3239;48.714;9.472;2023-03-22T09:15:13;97893.69;;;18.08;76.58
6413;BME280;3239;48.714;9.472;2023-03-22T09:17:39;97897.72;;;17.88;79.18
6413;BME280;3239;48.714;9.472;2023-03-22T09:20:06;97889.41;;;18.07;83.29
6413;BME280;3239;48.714;9.472;2023-03-22T09:22:32;97897.16;;;17.90;77.26
6413;BME280;3239;48.714;9.472;2023-03-22T09:24:58;97896.06;;;17.76;78.15
6413;BME280;3239;48.714;9.472;2023-03-22T09:27:23;97886.38;;;17.22;84.08
6413;BME280;3239;48.714;9.472;2023-03-22T09:29:51;97896.00;;;18.31;90.66
6413;BME280;3239;48.714;9.472;2023-03-22T09:32:17;97896.19;;;18.52;80.40
6413;BME280;3239;48.714;9.472;2023-03-22T09:34:43;97878.81;;;18.80;72.17
6413;BME280;3239;48.714;9.472;2023-03-22T09:37:09;97882.28;;;18.14;77.61
6413;BME280;3239;48.714;9.472;2023-03-22T09:39:38;97890.28;;;17.81;83.67
6413;BME280;3239;48.714;9.472;2023-03-22T09:44:53;97883.97;;;17.71;83.31
6413;BME280;3239;48.714;9.472;2023-03-22T09:47:39;97875.50;;;17.07;92.48
6413;BME280;3239;48.714;9.472;2023-03-22T09:50:28;97860.50;;;17.82;93.40
6413;BME280;3239;48.714;9.472;2023-03-22T09:52:56;97856.78;;;18.53;89.05
6413;BME280;3239;48.714;9.472;2023-03-22T09:55:35;97855.47;;;17.52;90.98
6413;BME280;3239;48.714;9.472;2023-03-22T09:58:23;97878.34;;;17.52;88.95
6413;BME280;3239;48.714;9.472;2023-03-22T10:01:25;97854.31;;;16.92;100.00
6413;BME280;3239;48.714;9.472;2023-03-22T10:09:58;97840.06;;;17.32;93.02
6413;BME280;3239;48.714;9.472;2023-03-22T10:15:38;97837.25;;;17.58;90.54
6413;BME280;3239;48.714;9.472;2023-03-22T10:18:12;97848.91;;;18.50;85.54
6413;BME280;3239;48.714;9.472;2023-03-22T10:23:24;97833.38;;;19.86;73.25
6413;BME280;3239;48.714;9.472;2023-03-22T10:25:53;97820.38;;;20.86;63.54
6413;BME280;3239;48.714;9.472;2023-03-22T10:28:31;97819.16;;;20.45;58.07
6413;BME280;3239;48.714;9.472;2023-03-22T10:30:59;97807.47;;;21.02;62.40
6413;BME280;3239;48.714;9.472;2023-03-22T10:33:34;97802.50;;;20.24;55.22
6413;BME280;3239;48.714;9.472;2023-03-22T10:36:04;97804.13;;;20.38;58.18
6413;BME280;3239;48.714;9.472;2023-03-22T10:38:30;97795.13;;;20.61;60.32
6413;BME280;3239;48.714;9.472;2023-03-22T10:40:59;97781.91;;;21.05;55.56
6413;BME280;3239;48.714;9.472;2023-03-22T10:43:37;97786.69;;;19.84;58.03
6413;BME280;3239;48.714;9.472;2023-03-22T10:46:08;97806.66;;;18.80;58.17
6413;BME280;3239;48.714;9.472;2023-03-22T10:48:44;97782.53;;;18.73;64.09
6413;BME280;3239;48.714;9.472;2023-03-22T10:54:04;97780.53;;;19.04;67.08
6413;BME280;3239;48.714;9.472;2023-03-22T10:56:31;97778.63;;;20.09;63.49
6413;BME280;3239;48.714;9.472;2023-03-22T10:58:57;97779.34;;;19.89;58.44
6413;BME280;3239;48.714;9.472;2023-03-22T11:01:30;97776.31;;;20.94;53.09
6413;BME280;3239;48.714;9.472;2023-03-22T11:04:11;97778.91;;;21.95;47.85
6413;BME280;3239;48.714;9.472;2023-03-22T11:06:50;97773.25;;;21.82;48.58
6413;BME280;3239;48.714;9.472;2023-03-22T11:09:22;97773.53;;;21.28;43.72
6413;BME280;3239;48.714;9.472;2023-03-22T11:17:13;97770.63;;;22.09;44.50
6413;BME280;3239;48.714;9.472;2023-03-22T11:24:54;97765.84;;;23.25;43.75
6413;BME280;3239;48.714;9.472;2023-03-22T11:27:29;97757.75;;;22.15;43.50
6413;BME280;3239;48.714;9.472;2023-03-22T11:32:42;97749.91;;;22.00;44.46
6413;BME280;3239;48.714;9.472;2023-03-22T11:35:19;97758.63;;;21.47;45.12
6413;BME280;3239;48.714;9.472;2023-03-22T11:37:51;97749.69;;;19.82;44.77
6413;BME280;3239;48.714;9.472;2023-03-22T11:40:40;97741.75;;;19.67;49.78
6413;BME280;3239;48.714;9.472;2023-03-22T11:43:26;97738.13;;;20.62;50.93
6413;BME280;3239;48.714;9.472;2023-03-22T11:45:55;97739.50;;;20.28;46.75
6413;BME280;3239;48.714;9.472;2023-03-22T11:48:29;97730.44;;;19.74;48.93
6413;BME280;3239;48.714;9.472;2023-03-22T11:51:10;97733.38;;;20.41;48.43
6413;BME280;3239;48.714;9.472;2023-03-22T11:53:40;97730.63;;;19.25;50.22
6413;BME280;3239;48.714;9.472;2023-03-22T11:56:10;97724.41;;;19.05;51.17
6413;BME280;3239;48.714;9.472;2023-03-22T12:01:25;97711.06;;;19.97;46.47
6413;BME280;3239;48.714;9.472;2023-03-22T12:03:55;97709.75;;;20.31;47.26
6413;BME280;3239;48.714;9.472;2023-03-22T12:06:26;97697.47;;;20.45;44.00
6413;BME280;3239;48.714;9.472;2023-03-22T12:08:58;97703.50;;;21.93;42.77
6413;BME280;3239;48.714;9.472;2023-03-22T12:14:05;97684.66;;;23.92;37.99
6413;BME280;3239;48.714;9.472;2023-03-22T12:21:45;97673.16;;;21.99;38.24
6413;BME280;3239;48.714;9.472;2023-03-22T12:24:27;97665.59;;;22.65;38.16
6413;BME280;3239;48.714;9.472;2023-03-22T12:27:00;97679.38;;;23.15;37.99
6413;BME280;3239;48.714;9.472;2023-03-22T12:29:29;97669.75;;;23.32;36.55
6413;BME280;3239;48.714;9.472;2023-03-22T12:32:11;97665.84;;;22.19;36.09
6413;BME280;3239;48.714;9.472;2023-03-22T12:34:44;97665.91;;;21.94;35.76
6413;BME280;3239;48.714;9.472;2023-03-22T12:37:24;97670.34;;;23.17;36.43
6413;BME280;3239;48.714;9.472;2023-03-22T12:40:23;97661.63;;;23.94;35.52
6413;BME280;3239;48.714;9.472;2023-03-22T12:42:53;97651.53;;;24.31;34.89
6413;BME280;3239;48.714;9.472;2023-03-22T12:45:26;97663.91;;;24.57;32.94
6413;BME280;3239;48.714;9.472;2023-03-22T12:48:11;97662.41;;;22.98;33.86
6413;BME280;3239;48.714;9.472;2023-03-22T12:51:07;97652.59;;;23.24;34.34
6413;BME280;3239;48.714;9.472;2023-03-22T12:53:40;97661.16;;;21.12;34.02
6413;BME280;3239;48.714;9.472;2023-03-22T12:56:39;97650.31;;;22.03;36.70
6413;BME280;3239;48.714;9.472;2023-03-22T12:59:22;97639.94;;;22.96;35.74
6413;BME280;3239;48.714;9.472;2023-03-22T13:01:58;97651.56;;;21.63;34.92
6413;BME280;3239;48.714;9.472;2023-03-22T13:04:50;97646.81;;;21.29;36.47
6413;BME280;3239;48.714;9.472;2023-03-22T13:26:43;97621.34;;;23.85;34.80
6413;BME280;3239;48.714;9.472;2023-03-22T13:31:59;97613.94;;;24.36;33.67
6413;BME280;3239;48.714;9.472;2023-03-22T13:34:47;97599.59;;;24.59;31.99
6413;BME280;3239;48.714;9.472;2023-03-22T13:37:47;97606.53;;;25.22;32.07
6413;BME280;3239;48.714;9.472;2023-03-22T13:40:31;97605.19;;;24.13;33.08
6413;BME280;3239;48.714;9.472;2023-03-22T13:43:24;97595.41;;;23.85;33.45
6413;BME280;3239;48.714;9.472;2023-03-22T13:46:08;97590.34;;;24.72;31.92
6413;BME280;3239;48.714;9.472;2023-03-22T13:51:32;97585.28;;;26.79;30.26
6413;BME280;3239;48.714;9.472;2023-03-22T13:56:57;97588.31;;;25.91;30.93
6413;BME280;3239;48.714;9.472;2023-03-22T14:02:16;97581.56;;;25.28;31.40
6413;BME280;3239;48.714;9.472;2023-03-22T14:04:49;97572.81;;;24.56;32.33
6413;BME280;3239;48.714;9.472;2023-03-22T14:07:54;97574.44;;;22.99;34.38
6413;BME280;3239;48.714;9.472;2023-03-22T14:13:31;97568.13;;;23.99;34.45
6413;BME280;3239;48.714;9.472;2023-03-22T14:18:55;97565.78;;;24.55;31.17
6413;BME280;3239;48.714;9.472;2023-03-22T14:21:30;97554.59;;;25.04;28.11
6413;BME280;3239;48.714;9.472;2023-03-22T14:23:57;97551.44;;;24.32;28.15
6413;BME280;3239;48.714;9.472;2023-03-22T14:26:35;97538.16;;;24.32;28.08
6413;BME280;3239;48.714;9.472;2023-03-22T14:29:42;97539.56;;;23.42;29.01
6413;BME280;3239;48.714;9.472;2023-03-22T14:32:21;97536.88;;;26.61;28.96
6413;BME280;3239;48.714;9.472;2023-03-22T14:34:52;97538.59;;;28.22;25.93
6413;BME280;3239;48.714;9.472;2023-03-22T14:37:22;97548.00;;;26.98;27.17
6413;BME280;3239;48.714;9.472;2023-03-22T14:39:48;97539.63;;;27.00;26.30
6413;BME280;3239;48.714;9.472;2023-03-22T14:42:24;97534.72;;;26.59;26.74
6413;BME280;3239;48.714;9.472;2023-03-22T14:45:06;97550.00;;;24.95;25.79
6413;BME280;3239;48.714;9.472;2023-03-22T14:47:43;97538.22;;;26.79;25.17
6413;BME280;3239;48.714;9.472;2023-03-22T14:50:17;97544.13;;;27.28;25.92
6413;BME280;3239;48.714;9.472;2023-03-22T14:52:47;97543.91;;;29.12;24.41
6413;BME280;3239;48.714;9.472;2023-03-22T14:55:20;97544.53;;;29.66;23.87
6413;BME280;3239;48.714;9.472;2023-03-22T14:57:57;97547.53;;;27.91;24.67
6413;BME280;3239;48.714;9.472;2023-03-22T15:00:24;97544.88;;;25.40;26.07
6413;BME280;3239;48.714;9.472;2023-03-22T15:03:12;97550.50;;;25.40;27.73
6413;BME280;3239;48.714;9.472;2023-03-22T15:05:42;97543.44;;;27.73;25.96
6413;BME280;3239;48.714;9.472;2023-03-22T15:10:48;97531.19;;;30.67;22.95
6413;BME280;3239;48.714;9.472;2023-03-22T15:13:15;97530.94;;;31.32;22.19
6413;BME280;3239;48.714;9.472;2023-03-22T15:15:43;97530.78;;;30.82;22.66
6413;BME280;3239;48.714;9.472;2023-03-22T15:18:17;97522.88;;;31.16;22.28
6413;BME280;3239;48.714;9.472;2023-03-22T15:20:46;97512.31;;;32.14;21.27
6413;BME280;3239;48.714;9.472;2023-03-22T15:25:48;97515.47;;;28.51;24.16
6413;BME280;3239;48.714;9.472;2023-03-22T15:28:18;97501.44;;;30.28;22.11
6413;BME280;3239;48.714;9.472;2023-03-22T15:30:49;97514.84;;;29.65;22.65
6413;BME280;3239;48.714;9.472;2023-03-22T15:33:35;97512.19;;;27.65;25.93
6413;BME280;3239;48.714;9.472;2023-03-22T15:36:02;97513.84;;;29.52;23.96